createdAt,value
2023-04-16T00:01:26.480Z,34.30
2023-04-16T00:03:55.910Z,37.92
2023-04-16T00:06:24.558Z,33.80
2023-04-16T00:08:54.276Z,35.58
2023-04-16T00:11:23.639Z,37.55
2023-04-16T00:13:52.012Z,38.10
2023-04-16T00:16:20.625Z,37.55
2023-04-16T00:18:48.944Z,35.85
2023-04-16T00:21:17.267Z,38.40
2023-04-16T00:23:45.912Z,34.55
2023-04-16T00:26:16.095Z,36.45
2023-04-16T00:28:44.406Z,38.95
2023-04-16T00:31:12.800Z,36.28
2023-04-16T00:33:41.241Z,34.75
2023-04-16T00:36:10.687Z,40.13
2023-04-16T00:38:39.033Z,38.38
2023-04-16T00:41:07.374Z,39.40
2023-04-16T00:43:37.091Z,40.30
2023-04-16T00:46:07.753Z,41.55
2023-04-16T00:48:37.520Z,36.30
2023-04-16T00:51:06.722Z,39.42
2023-04-16T00:53:35.798Z,39.78
2023-04-16T00:56:05.215Z,38.88
2023-04-16T00:58:35.017Z,38.15
2023-04-16T01:01:04.916Z,40.58
2023-04-16T01:03:39.632Z,36.92
2023-04-16T01:06:08.616Z,40.50
2023-04-16T01:08:37.039Z,41.33
2023-04-16T01:11:05.642Z,38.60
2023-04-16T01:13:34.522Z,39.95
2023-04-16T01:16:04.563Z,37.10
2023-04-16T01:18:32.942Z,40.47
2023-04-16T01:21:02.876Z,36.80
2023-04-16T01:23:31.470Z,41.20
2023-04-16T01:25:59.976Z,36.92
2023-04-16T01:28:28.388Z,37.00
2023-04-16T01:30:56.787Z,38.97
2023-04-16T01:33:25.230Z,36.88
2023-04-16T01:35:53.610Z,37.65
2023-04-16T01:38:23.427Z,36.58
2023-04-16T01:40:51.794Z,40.75
2023-04-16T01:43:20.281Z,38.17
2023-04-16T01:45:48.614Z,40.55
2023-04-16T01:48:17.110Z,41.25
2023-04-16T01:50:45.554Z,37.53
2023-04-16T01:53:13.857Z,37.30
2023-04-16T01:55:43.569Z,40.08
2023-04-16T01:58:14.719Z,39.17
2023-04-16T02:00:43.073Z,40.35
2023-04-16T02:03:11.811Z,38.08
2023-04-16T02:05:40.275Z,38.95
2023-04-16T02:08:08.615Z,38.10
2023-04-16T02:10:37.008Z,37.78
2023-04-16T02:13:06.731Z,36.92
2023-04-16T02:15:35.235Z,36.92
2023-04-16T02:18:03.606Z,37.55
2023-04-16T02:20:31.946Z,37.15
2023-04-16T02:23:00.490Z,38.22
2023-04-16T02:25:28.989Z,38.20
2023-04-16T02:27:57.327Z,39.00
2023-04-16T02:30:27.167Z,35.17
2023-04-16T02:32:55.517Z,34.42
2023-04-16T02:35:23.901Z,34.50
2023-04-16T02:37:52.269Z,33.90
2023-04-16T02:40:21.021Z,37.00
2023-04-16T02:42:49.369Z,38.22
2023-04-16T02:45:17.802Z,36.65
2023-04-16T02:47:47.520Z,36.40
2023-04-16T02:50:16.037Z,39.25
2023-04-16T02:52:44.450Z,38.17
2023-04-16T02:55:13.307Z,37.90
2023-04-16T02:57:42.452Z,39.15
2023-04-16T03:00:11.742Z,39.28
2023-04-16T03:02:40.741Z,39.50
2023-04-16T03:05:11.776Z,42.22
2023-04-16T03:07:40.837Z,41.63
2023-04-16T03:10:10.059Z,44.53
2023-04-16T03:12:39.175Z,43.17
2023-04-16T03:15:08.427Z,47.33
2023-04-16T03:17:37.002Z,42.80
2023-04-16T03:20:06.525Z,44.83
2023-04-16T03:22:36.485Z,46.92
2023-04-16T03:25:05.284Z,47.85
2023-04-16T03:27:33.951Z,47.67
2023-04-16T03:30:02.563Z,46.80
2023-04-16T03:32:30.926Z,46.78
2023-04-16T03:34:59.314Z,51.15
2023-04-16T03:37:27.676Z,47.25
2023-04-16T03:39:57.397Z,46.00
2023-04-16T03:42:25.932Z,48.53
2023-04-16T03:44:54.626Z,45.17
2023-04-16T03:47:23.090Z,55.03
2023-04-16T03:49:51.822Z,45.75
2023-04-16T03:52:20.169Z,46.10
2023-04-16T03:54:48.505Z,48.15
2023-04-16T03:57:18.254Z,49.30
2023-04-16T03:59:47.039Z,46.58
2023-04-16T04:02:15.477Z,49.50
2023-04-16T04:04:44.062Z,46.28
2023-04-16T04:07:12.496Z,45.42
2023-04-16T04:09:40.855Z,45.55
2023-04-16T04:12:09.986Z,44.90
2023-04-16T04:14:40.104Z,49.42
2023-04-16T04:17:09.396Z,43.42
2023-04-16T04:19:40.280Z,50.33
2023-04-16T04:22:10.946Z,50.90
2023-04-16T04:24:39.287Z,44.90
2023-04-16T04:27:07.601Z,46.70
2023-04-16T04:29:36.016Z,48.97
2023-04-16T04:32:06.290Z,46.92
2023-04-16T04:34:34.636Z,49.03
2023-04-16T04:37:02.994Z,42.78
2023-04-16T04:39:31.759Z,48.67
2023-04-16T04:42:00.191Z,50.03
2023-04-16T04:44:28.509Z,45.80
2023-04-16T04:46:56.815Z,48.28
2023-04-16T04:49:26.569Z,49.05
2023-04-16T04:51:54.903Z,50.42
2023-04-16T04:54:23.293Z,50.13
2023-04-16T04:56:52.539Z,49.17
2023-04-16T04:59:21.611Z,49.47
2023-04-16T05:01:50.386Z,47.58
2023-04-16T05:04:19.321Z,56.08
2023-04-16T05:06:49.334Z,46.40
2023-04-16T05:09:17.742Z,53.92
2023-04-16T05:11:46.254Z,49.42
2023-04-16T05:14:14.686Z,52.72
2023-04-16T05:16:43.082Z,51.97
2023-04-16T05:19:11.620Z,51.55
2023-04-16T05:21:40.277Z,49.28
2023-04-16T05:24:10.013Z,52.05
2023-04-16T05:26:38.371Z,50.38
2023-04-16T05:29:06.774Z,52.92
2023-04-16T05:31:35.311Z,46.28
2023-04-16T05:34:03.622Z,50.03
2023-04-16T05:36:31.952Z,48.25
2023-04-16T05:39:00.308Z,51.42
2023-04-16T05:41:30.028Z,47.47
2023-04-16T05:43:58.425Z,47.60
2023-04-16T05:46:26.903Z,49.78
2023-04-16T05:48:55.697Z,43.70
2023-04-16T05:51:26.061Z,44.65
2023-04-16T05:53:54.394Z,45.55
2023-04-16T05:56:23.392Z,46.33
2023-04-16T05:58:53.086Z,47.08
2023-04-16T06:01:22.270Z,45.53
2023-04-16T06:03:50.991Z,44.33
2023-04-16T06:06:19.406Z,43.55
2023-04-16T06:08:47.824Z,45.83
2023-04-16T06:11:16.243Z,44.80
2023-04-16T06:13:44.610Z,45.88
2023-04-16T06:16:14.563Z,39.85
2023-04-16T06:18:42.906Z,46.45
2023-04-16T06:21:11.353Z,43.97
2023-04-16T06:23:39.852Z,45.17
2023-04-16T06:26:08.196Z,42.03
2023-04-16T06:28:36.525Z,43.47
2023-04-16T06:31:05.722Z,41.65
2023-04-16T06:33:35.493Z,41.03
2023-04-16T06:36:03.832Z,41.60
2023-04-16T06:38:32.165Z,43.55
2023-04-16T06:41:00.707Z,41.58
2023-04-16T06:43:29.868Z,41.55
2023-04-16T06:45:58.206Z,44.17
2023-04-16T06:48:26.602Z,46.40
2023-04-16T06:50:56.690Z,40.90
2023-04-16T06:53:25.328Z,44.00
2023-04-16T06:55:53.700Z,46.83
2023-04-16T06:58:22.370Z,41.75
2023-04-16T07:00:50.901Z,48.10
2023-04-16T07:03:19.572Z,42.50
2023-04-16T07:05:48.079Z,43.45
2023-04-16T07:08:17.900Z,41.72
2023-04-16T07:10:46.222Z,40.92
2023-04-16T07:13:14.986Z,41.88
2023-04-16T07:15:43.422Z,42.92
2023-04-16T07:18:11.817Z,38.95
2023-04-16T07:20:40.212Z,39.33
2023-04-16T07:23:08.677Z,39.95
2023-04-16T07:25:38.568Z,40.33
2023-04-16T07:28:06.961Z,41.83
2023-04-16T07:30:35.837Z,37.22
2023-04-16T07:33:04.808Z,43.85
2023-04-16T07:35:33.592Z,41.45
2023-04-16T07:38:02.031Z,42.42
2023-04-16T07:40:30.755Z,38.35
2023-04-16T07:43:00.553Z,42.17
2023-04-16T07:45:28.923Z,41.45
2023-04-16T07:47:57.668Z,43.53
2023-04-16T07:50:26.235Z,41.22
2023-04-16T07:52:54.704Z,40.75
2023-04-16T07:55:23.335Z,39.95
2023-04-16T07:57:52.276Z,41.30
2023-04-16T08:00:22.196Z,39.42
2023-04-16T08:02:51.221Z,40.33
2023-04-16T08:05:19.723Z,36.40
2023-04-16T08:07:48.180Z,40.53
2023-04-16T08:10:16.746Z,37.10
2023-04-16T08:12:45.195Z,40.95
2023-04-16T08:15:13.673Z,40.42
2023-04-16T08:17:43.426Z,37.05
2023-04-16T08:20:15.758Z,41.35
2023-04-16T08:22:46.232Z,36.60
2023-04-16T08:25:15.002Z,40.50
2023-04-16T08:27:43.338Z,38.08
2023-04-16T08:30:12.372Z,38.65
2023-04-16T08:32:40.881Z,38.08
2023-04-16T08:35:11.115Z,38.47
2023-04-16T08:37:39.773Z,38.67
2023-04-16T08:40:09.596Z,38.72
2023-04-16T08:42:45.665Z,36.85
2023-04-16T08:45:16.067Z,34.03
2023-04-16T08:47:47.932Z,36.60
2023-04-16T08:50:23.442Z,37.10
2023-04-16T08:52:53.933Z,41.13
2023-04-16T08:55:27.329Z,36.80
2023-04-16T08:57:59.652Z,35.72
2023-04-16T09:00:29.526Z,43.25
2023-04-16T09:02:58.131Z,41.65
2023-04-16T09:05:30.348Z,38.97
2023-04-16T09:07:58.744Z,38.20
2023-04-16T09:10:28.166Z,41.83
2023-04-16T09:12:57.333Z,42.13
2023-04-16T09:15:26.584Z,41.42
2023-04-16T09:17:56.546Z,39.40
2023-04-16T09:20:25.327Z,40.53
2023-04-16T09:22:57.004Z,38.60
2023-04-16T09:25:26.320Z,38.35
2023-04-16T09:27:54.706Z,35.47
2023-04-16T09:30:24.888Z,36.08
2023-04-16T09:33:02.151Z,40.10
2023-04-16T09:35:46.743Z,37.33
2023-04-16T09:38:17.119Z,38.17
2023-04-16T09:40:47.683Z,35.63
2023-04-16T09:43:17.983Z,39.67
2023-04-16T09:45:51.050Z,35.55
2023-04-16T09:48:29.997Z,33.53
2023-04-16T09:50:59.294Z,35.40
2023-04-16T09:53:30.307Z,33.75
2023-04-16T09:55:59.232Z,34.10
2023-04-16T09:58:28.591Z,31.63
2023-04-16T10:00:57.660Z,33.17
2023-04-16T10:03:32.961Z,33.67
2023-04-16T10:06:03.055Z,35.63
2023-04-16T10:08:32.816Z,35.33
2023-04-16T10:11:01.742Z,36.67
2023-04-16T10:13:31.244Z,35.08
2023-04-16T10:16:00.154Z,33.22
2023-04-16T10:18:29.991Z,36.40
2023-04-16T10:20:59.873Z,36.05
2023-04-16T10:23:28.611Z,41.58
2023-04-16T10:25:59.833Z,44.80
2023-04-16T10:28:29.456Z,38.85
2023-04-16T10:30:59.341Z,40.22
2023-04-16T10:33:30.421Z,43.55
2023-04-16T10:36:12.976Z,39.55
2023-04-16T10:38:42.837Z,48.22
2023-04-16T10:41:12.691Z,39.20
2023-04-16T10:43:42.432Z,38.65
2023-04-16T10:46:22.112Z,44.67
2023-04-16T10:48:51.712Z,42.35
2023-04-16T10:51:28.854Z,43.45
2023-04-16T10:53:58.290Z,45.67
2023-04-16T10:56:29.092Z,40.78
2023-04-16T10:58:57.479Z,42.90
2023-04-16T11:01:36.535Z,41.28
2023-04-16T11:04:30.606Z,39.60
2023-04-16T11:07:05.520Z,38.08
2023-04-16T11:09:54.729Z,40.28
2023-04-16T11:12:27.263Z,39.00
2023-04-16T11:14:59.158Z,51.50
2023-04-16T11:17:30.777Z,37.30
2023-04-16T11:19:59.322Z,35.45
2023-04-16T11:22:28.381Z,37.22
2023-04-16T11:24:57.571Z,38.78
2023-04-16T11:27:27.457Z,34.35
2023-04-16T11:30:00.293Z,35.75
2023-04-16T11:32:28.797Z,34.47
2023-04-16T11:34:57.166Z,31.98
2023-04-16T11:37:34.288Z,30.80
2023-04-16T11:40:04.828Z,32.75
2023-04-16T11:42:37.227Z,31.75
2023-04-16T11:45:06.373Z,33.83
2023-04-16T11:47:46.866Z,32.88
2023-04-16T11:50:20.128Z,31.60
2023-04-16T11:52:49.263Z,32.28
2023-04-16T11:55:18.178Z,30.83
2023-04-16T11:57:48.549Z,30.27
2023-04-16T12:00:17.498Z,30.48
2023-04-16T12:02:47.402Z,29.02
2023-04-16T12:05:30.771Z,28.73
2023-04-16T12:08:00.993Z,29.85
2023-04-16T12:10:30.308Z,30.40
2023-04-16T12:13:13.631Z,31.60
2023-04-16T12:15:46.780Z,30.15
2023-04-16T12:18:16.272Z,28.98
2023-04-16T12:20:45.587Z,28.90
2023-04-16T12:23:24.691Z,31.40
2023-04-16T12:25:53.374Z,28.40
2023-04-16T12:28:31.926Z,28.40
2023-04-16T12:31:01.091Z,27.35
2023-04-16T12:33:30.236Z,29.60
2023-04-16T12:35:58.717Z,31.27
2023-04-16T12:38:27.640Z,27.95
2023-04-16T12:40:57.839Z,26.15
2023-04-16T12:43:26.569Z,29.52
2023-04-16T12:45:56.582Z,28.08
2023-04-16T12:48:25.023Z,26.83
2023-04-16T12:50:55.301Z,25.15
2023-04-16T12:53:23.962Z,25.27
2023-04-16T12:55:52.659Z,25.45
2023-04-16T12:58:21.026Z,23.52
2023-04-16T13:00:49.502Z,21.50
2023-04-16T13:03:20.982Z,24.17
2023-04-16T13:05:49.770Z,27.52
2023-04-16T13:08:18.274Z,26.23
2023-04-16T13:10:46.677Z,23.15
2023-04-16T13:13:16.445Z,23.60
2023-04-16T13:15:44.922Z,24.77
2023-04-16T13:18:13.517Z,23.15
2023-04-16T13:20:43.809Z,23.38
2023-04-16T13:23:12.410Z,21.52
2023-04-16T13:25:40.912Z,26.55
2023-04-16T13:28:09.366Z,23.13
2023-04-16T13:30:38.121Z,23.65
2023-04-16T13:33:06.623Z,23.67
2023-04-16T13:35:35.135Z,22.00
2023-04-16T13:38:05.975Z,25.45
2023-04-16T13:40:34.683Z,21.67
2023-04-16T13:43:03.537Z,21.80
2023-04-16T13:45:32.577Z,28.92
2023-04-16T13:48:01.372Z,24.15
2023-04-16T13:50:29.984Z,24.33
2023-04-16T13:52:58.377Z,24.15
2023-04-16T13:55:28.137Z,21.33
2023-04-16T13:57:57.056Z,21.52
2023-04-16T14:00:27.250Z,21.70
2023-04-16T14:02:55.894Z,20.10
2023-04-16T14:05:26.608Z,34.53
2023-04-16T14:07:55.659Z,22.88
2023-04-16T14:10:24.034Z,22.52
2023-04-16T14:12:53.807Z,21.33
2023-04-16T14:15:22.201Z,20.60
2023-04-16T14:17:50.876Z,20.95
2023-04-16T14:20:19.264Z,20.65
2023-04-16T14:22:47.735Z,20.30
2023-04-16T14:25:16.165Z,21.63
2023-04-16T14:27:44.547Z,19.77
2023-04-16T14:30:14.752Z,18.13
2023-04-16T14:32:43.329Z,21.35
2023-04-16T14:35:11.802Z,21.83
2023-04-16T14:37:40.816Z,20.13
2023-04-16T14:40:10.866Z,19.80
2023-04-16T14:42:41.965Z,19.90
2023-04-16T14:45:11.033Z,19.88
2023-04-16T14:47:46.217Z,24.15
2023-04-16T14:50:20.991Z,20.40
2023-04-16T14:52:53.786Z,22.65
2023-04-16T14:55:27.717Z,21.60
2023-04-16T14:57:59.740Z,21.27
2023-04-16T15:00:28.616Z,22.73
2023-04-16T15:02:59.463Z,20.42
2023-04-16T15:05:27.905Z,20.45
2023-04-16T15:07:56.291Z,19.73
2023-04-16T15:10:24.779Z,18.42
2023-04-16T15:12:53.188Z,19.88
2023-04-16T15:15:21.579Z,21.00
2023-04-16T15:17:51.026Z,22.05
2023-04-16T15:20:21.088Z,19.45
2023-04-16T15:22:49.448Z,23.33
2023-04-16T15:25:18.002Z,19.85
2023-04-16T15:27:46.339Z,22.08
2023-04-16T15:30:15.695Z,20.38
2023-04-16T15:32:45.061Z,19.13
2023-04-16T15:35:15.544Z,21.38
2023-04-16T15:37:45.412Z,18.98
2023-04-16T15:40:15.902Z,21.75
2023-04-16T15:42:44.646Z,19.77
2023-04-16T15:45:13.124Z,22.05
2023-04-16T15:47:42.014Z,19.33
2023-04-16T15:50:11.000Z,20.58
2023-04-16T15:52:42.490Z,34.10
2023-04-16T15:55:12.398Z,20.48
2023-04-16T15:57:41.132Z,21.17
2023-04-16T16:00:14.174Z,22.08
2023-04-16T16:02:44.116Z,20.53
2023-04-16T16:05:14.244Z,23.63
2023-04-16T16:07:43.256Z,21.85
2023-04-16T16:10:16.025Z,22.80
2023-04-16T16:12:46.444Z,23.02
2023-04-16T16:15:14.955Z,20.85
2023-04-16T16:17:43.602Z,20.73
2023-04-16T16:20:12.887Z,22.75
2023-04-16T16:22:43.124Z,20.00
2023-04-16T16:25:12.929Z,17.90
2023-04-16T16:27:42.106Z,20.10
2023-04-16T16:30:11.548Z,20.15
2023-04-16T16:32:43.026Z,19.60
2023-04-16T16:35:13.992Z,20.95
2023-04-16T16:37:42.433Z,21.13
2023-04-16T16:40:11.690Z,22.50
2023-04-16T16:42:56.276Z,21.27
2023-04-16T16:45:34.919Z,26.48
2023-04-16T16:48:04.321Z,22.05
2023-04-16T16:50:33.254Z,20.80
2023-04-16T16:53:01.950Z,19.80
2023-04-16T16:55:30.346Z,38.03
2023-04-16T16:58:00.261Z,20.77
2023-04-16T17:00:28.712Z,22.67
2023-04-16T17:02:57.621Z,17.92
2023-04-16T17:05:26.246Z,29.42
2023-04-16T17:07:54.729Z,20.70
2023-04-16T17:10:23.761Z,26.02
2023-04-16T17:12:56.724Z,22.40
2023-04-16T17:15:26.922Z,69.18
2023-04-16T17:17:55.277Z,23.30
2023-04-16T17:20:24.124Z,20.10
2023-04-16T17:22:52.694Z,19.55
2023-04-16T17:25:21.330Z,19.95
2023-04-16T17:27:51.542Z,21.80
2023-04-16T17:30:20.194Z,22.30
2023-04-16T17:32:50.681Z,19.88
2023-04-16T17:35:19.106Z,21.38
2023-04-16T17:37:47.502Z,22.55
2023-04-16T17:40:18.196Z,23.55
2023-04-16T17:42:47.152Z,20.92
2023-04-16T17:45:15.716Z,21.95
2023-04-16T17:47:44.592Z,22.02
2023-04-16T17:50:14.636Z,21.70
2023-04-16T17:52:47.330Z,20.23
2023-04-16T17:55:16.652Z,21.17
2023-04-16T17:57:45.766Z,21.88
2023-04-16T18:00:16.152Z,26.65
2023-04-16T18:02:45.479Z,22.80
2023-04-16T18:05:15.498Z,22.00
2023-04-16T18:07:48.285Z,20.85
2023-04-16T18:10:16.714Z,21.42
2023-04-16T18:12:45.114Z,24.30
2023-04-16T18:15:13.465Z,29.80
2023-04-16T18:17:44.316Z,28.92
2023-04-16T18:20:16.738Z,21.77
2023-04-16T18:22:46.556Z,20.13
2023-04-16T18:25:16.085Z,21.08
2023-04-16T18:27:44.811Z,23.92
2023-04-16T18:30:20.164Z,22.00
2023-04-16T18:33:09.957Z,20.27
2023-04-16T18:35:42.314Z,21.55
2023-04-16T18:38:14.597Z,24.23
2023-04-16T18:40:43.108Z,21.15
2023-04-16T18:43:11.506Z,22.67
2023-04-16T18:45:40.034Z,21.98
2023-04-16T18:48:08.626Z,20.65
2023-04-16T18:50:36.996Z,20.17
2023-04-16T18:53:05.360Z,22.77
2023-04-16T18:55:35.305Z,20.77
2023-04-16T18:58:07.952Z,21.77
2023-04-16T19:00:36.408Z,23.35
2023-04-16T19:03:15.133Z,26.65
2023-04-16T19:05:43.765Z,21.50
2023-04-16T19:08:12.293Z,21.65
2023-04-16T19:10:42.044Z,21.40
2023-04-16T19:13:10.540Z,24.42
2023-04-16T19:15:38.942Z,22.23
2023-04-16T19:18:10.210Z,22.30
2023-04-16T19:20:39.630Z,22.52
2023-04-16T19:23:19.552Z,23.48
2023-04-16T19:26:04.135Z,22.85
2023-04-16T19:29:38.628Z,23.83
2023-04-16T19:32:25.542Z,23.08
2023-04-16T19:34:55.241Z,24.80
2023-04-16T19:37:27.270Z,25.70
2023-04-16T19:40:47.517Z,26.15
2023-04-16T19:44:00.716Z,24.02
2023-04-16T19:46:52.278Z,22.13
2023-04-16T19:49:20.631Z,22.00
2023-04-16T19:51:49.547Z,24.13
2023-04-16T19:54:17.907Z,22.75
2023-04-16T19:56:46.238Z,25.52
2023-04-16T19:59:15.990Z,23.58
2023-04-16T20:01:44.675Z,23.45
2023-04-16T20:04:16.506Z,20.80
2023-04-16T20:06:44.851Z,24.17
2023-04-16T20:09:13.422Z,22.52
2023-04-16T20:11:41.871Z,22.67
2023-04-16T20:14:10.653Z,23.73
2023-04-16T20:16:40.919Z,22.10
2023-04-16T20:19:09.536Z,20.92
2023-04-16T20:21:37.979Z,23.00
2023-04-16T20:24:10.609Z,21.52
2023-04-16T20:26:38.986Z,24.38
2023-04-16T20:29:07.344Z,23.48
2023-04-16T20:31:38.323Z,24.17
2023-04-16T20:34:23.915Z,23.90
2023-04-16T20:36:52.693Z,21.20
2023-04-16T20:39:22.428Z,24.52
2023-04-16T20:41:57.042Z,24.58
2023-04-16T20:44:26.444Z,23.00
2023-04-16T20:46:56.988Z,20.25
2023-04-16T20:49:26.869Z,22.33
2023-04-16T20:51:55.431Z,25.42
2023-04-16T20:54:24.770Z,22.73
2023-04-16T20:56:53.266Z,25.67
2023-04-16T20:59:21.591Z,22.67
2023-04-16T21:01:50.133Z,22.50
2023-04-16T21:04:18.846Z,19.63
2023-04-16T21:06:49.152Z,20.73
2023-04-16T21:09:17.526Z,21.98
2023-04-16T21:11:46.070Z,21.48
2023-04-16T21:14:14.473Z,22.27
2023-04-16T21:16:42.815Z,22.20
2023-04-16T21:19:11.592Z,23.58
2023-04-16T21:21:41.757Z,20.40
2023-04-16T21:24:11.582Z,20.52
2023-04-16T21:26:40.114Z,22.42
2023-04-16T21:29:08.425Z,21.35
2023-04-16T21:31:36.875Z,21.85
2023-04-16T21:34:05.386Z,21.77
2023-04-16T21:36:34.106Z,24.15
2023-04-16T21:39:02.651Z,22.02
2023-04-16T21:41:32.385Z,21.10
2023-04-16T21:44:00.989Z,20.95
2023-04-16T21:46:29.358Z,24.70
2023-04-16T21:48:57.890Z,20.13
2023-04-16T21:51:29.852Z,23.95
2023-04-16T21:53:58.849Z,22.80
2023-04-16T21:56:27.319Z,20.55
2023-04-16T21:58:56.987Z,26.38
2023-04-16T22:01:25.587Z,23.58
2023-04-16T22:03:54.348Z,23.63
2023-04-16T22:06:23.265Z,22.98
2023-04-16T22:08:51.599Z,23.85
2023-04-16T22:11:20.131Z,21.67
2023-04-16T22:13:49.419Z,22.33
2023-04-16T22:16:19.245Z,24.90
2023-04-16T22:18:47.915Z,21.15
2023-04-16T22:21:16.258Z,22.67
2023-04-16T22:23:46.351Z,22.77
2023-04-16T22:26:14.856Z,22.52
2023-04-16T22:28:43.279Z,23.90
2023-04-16T22:31:11.642Z,22.88
2023-04-16T22:33:41.537Z,23.00
2023-04-16T22:36:10.351Z,22.98
2023-04-16T22:38:38.929Z,22.20
2023-04-16T22:41:07.351Z,21.83
2023-04-16T22:43:37.105Z,26.08
2023-04-16T22:46:07.938Z,23.13
2023-04-16T22:48:38.747Z,23.85
2023-04-16T22:51:09.541Z,20.98
2023-04-16T22:53:38.167Z,21.25
2023-04-16T22:56:07.217Z,22.02
2023-04-16T22:58:35.598Z,24.20
2023-04-16T23:01:03.976Z,21.95
2023-04-16T23:03:32.652Z,22.35
2023-04-16T23:06:01.057Z,25.08
2023-04-16T23:08:30.895Z,23.67
2023-04-16T23:10:59.244Z,22.15
2023-04-16T23:13:27.600Z,24.95
2023-04-16T23:15:56.038Z,25.38
2023-04-16T23:18:24.528Z,22.98
2023-04-16T23:20:53.231Z,24.80
2023-04-16T23:23:21.598Z,22.80
2023-04-16T23:25:53.191Z,21.65
2023-04-16T23:28:21.993Z,23.00
2023-04-16T23:30:52.554Z,22.60
2023-04-16T23:33:20.894Z,21.10
2023-04-16T23:35:49.281Z,24.30
2023-04-16T23:38:17.602Z,24.38
2023-04-16T23:40:45.945Z,23.55
2023-04-16T23:43:15.758Z,24.77
2023-04-16T23:45:44.179Z,22.63
2023-04-16T23:48:12.556Z,21.45
2023-04-16T23:50:41.053Z,26.95
2023-04-16T23:53:09.411Z,24.58
2023-04-16T23:55:37.884Z,24.33
2023-04-16T23:58:06.229Z,26.80
